Time;durP1;ratioP1;P1;durP2;ratioP2;P2;SDS_P1;SDS_P2;PMS_P1;PMS_P2;Temp;Humidity;BMP_temperature;BMP_pressure;BME280_temperature;BME280_humidity;BME280_pressure;Samples;Min_cycle;Max_cycle;Signal;HPM_P1;HPM_P2
2021/09/03 00:00:06;;;;;;;0.40;0.20;;;;;;;13.85;100.00;100817.66;4937563;29;21033;-53
2021/09/03 00:02:37;;;;;;;0.40;0.20;;;;;;;13.98;100.00;100809.19;4937442;29;20910;-53
2021/09/03 00:05:12;;;;;;;2.20;2.00;;;;;;;13.97;100.00;100810.13;4937761;29;20456;-53
2021/09/03 00:07:39;;;;;;;0.40;0.20;;;;;;;13.90;100.00;100806.81;4937198;29;20905;-53
2021/09/03 00:10:08;;;;;;;0.40;0.40;;;;;;;13.98;100.00;100801.19;4937295;29;20595;-53
2021/09/03 00:12:34;;;;;;;0.40;0.20;;;;;;;13.78;100.00;100809.88;4937099;29;20567;-53
2021/09/03 00:15:04;;;;;;;0.40;0.20;;;;;;;13.67;100.00;100815.56;4937504;29;20543;-53
2021/09/03 00:17:32;;;;;;;0.87;0.80;;;;;;;13.69;100.00;100805.69;4937166;29;20480;-53
2021/09/03 00:19:59;;;;;;;0.50;0.50;;;;;;;13.53;100.00;100807.13;4937048;29;20495;-54
2021/09/03 00:22:26;;;;;;;0.40;0.20;;;;;;;13.53;100.00;100805.34;4936918;29;20555;-53
2021/09/03 00:24:53;;;;;;;0.40;0.20;;;;;;;13.36;100.00;100801.47;4937069;29;21126;-53
2021/09/03 00:27:19;;;;;;;0.40;0.30;;;;;;;13.40;100.00;100800.44;4933167;29;20457;-53
2021/09/03 00:29:46;;;;;;;0.93;0.93;;;;;;;13.41;100.00;100802.19;4929708;29;20500;-53
2021/09/03 00:32:13;;;;;;;0.47;0.40;;;;;;;13.37;100.00;100808.56;4936721;29;21101;-53
2021/09/03 00:34:40;;;;;;;1.40;1.13;;;;;;;13.33;100.00;100806.00;4936945;29;20456;-53
2021/09/03 00:37:07;;;;;;;1.27;1.20;;;;;;;13.31;100.00;100807.84;4936405;29;20551;-53
2021/09/03 00:39:34;;;;;;;0.40;0.20;;;;;;;13.23;100.00;100809.00;4936662;29;20459;-53
2021/09/03 00:42:01;;;;;;;2.20;0.77;;;;;;;13.18;100.00;100809.13;4936434;29;20472;-54
2021/09/03 00:44:27;;;;;;;0.40;0.20;;;;;;;13.34;100.00;100807.72;4936915;29;20467;-53
2021/09/03 00:46:54;;;;;;;0.40;0.20;;;;;;;13.04;100.00;100801.53;4936510;29;20462;-54
2021/09/03 00:49:21;;;;;;;0.87;0.87;;;;;;;13.06;100.00;100801.47;4936464;29;21032;-53
2021/09/03 00:51:48;;;;;;;0.40;0.20;;;;;;;12.99;100.00;100800.78;4936470;29;20491;-53
2021/09/03 00:54:15;;;;;;;0.67;0.67;;;;;;;13.01;100.00;100796.25;4937262;29;20543;-53
2021/09/03 00:56:43;;;;;;;0.40;0.20;;;;;;;12.96;100.00;100790.19;4947833;29;20484;-53
2021/09/03 00:59:10;;;;;;;0.40;0.20;;;;;;;12.87;100.00;100794.94;4936508;29;20531;-53
2021/09/03 01:01:37;;;;;;;0.53;0.47;;;;;;;12.96;100.00;100787.53;4936854;29;20467;-54
2021/09/03 01:04:04;;;;;;;0.93;0.93;;;;;;;12.98;100.00;100784.81;4936254;29;20962;-53
2021/09/03 01:06:31;;;;;;;0.40;0.30;;;;;;;13.00;100.00;100786.50;4936284;29;20495;-53
2021/09/03 01:08:59;;;;;;;0.67;0.60;;;;;;;12.87;100.00;100779.78;4936037;29;20456;-53
2021/09/03 01:11:26;;;;;;;0.40;0.20;;;;;;;12.84;100.00;100787.88;4942098;29;20579;-53
2021/09/03 01:13:53;;;;;;;0.60;0.60;;;;;;;12.90;100.00;100781.53;4931862;29;20476;-53
2021/09/03 01:16:20;;;;;;;0.40;0.30;;;;;;;12.90;100.00;100781.53;4936322;29;20487;-53
2021/09/03 01:18:47;;;;;;;0.50;0.47;;;;;;;12.82;100.00;100775.53;4935883;29;20467;-53
2021/09/03 01:21:14;;;;;;;0.40;0.20;;;;;;;12.75;100.00;100785.53;4936194;29;20547;-53
2021/09/03 01:23:41;;;;;;;0.40;0.20;;;;;;;12.66;100.00;100773.31;4936189;29;20571;-51
2021/09/03 01:26:11;;;;;;;0.40;0.20;;;;;;;12.55;100.00;100786.09;4935796;29;20480;-52
2021/09/03 01:28:38;;;;;;;0.73;0.73;;;;;;;12.62;100.00;100776.13;4935905;29;20546;-51
2021/09/03 01:31:05;;;;;;;0.40;0.20;;;;;;;12.64;100.00;100774.28;4935629;29;21009;-53
2021/09/03 01:33:32;;;;;;;0.40;0.20;;;;;;;12.65;100.00;100776.03;4935691;29;20472;-52
2021/09/03 01:36:00;;;;;;;0.40;0.30;;;;;;;12.60;100.00;100777.94;4935932;29;20487;-53
2021/09/03 01:38:27;;;;;;;1.30;1.20;;;;;;;12.54;100.00;100779.00;4935442;29;20903;-53
2021/09/03 01:40:57;;;;;;;0.53;0.47;;;;;;;12.51;100.00;100779.09;4936058;29;20455;-53
2021/09/03 01:43:24;;;;;;;2.00;2.00;;;;;;;12.56;100.00;100773.63;4935676;29;20563;-53
2021/09/03 01:45:52;;;;;;;0.77;0.77;;;;;;;12.57;100.00;100775.38;4935549;29;20560;-53
2021/09/03 01:48:19;;;;;;;0.40;0.20;;;;;;;12.44;100.00;100775.72;4931319;29;20492;-53
2021/09/03 01:50:47;;;;;;;0.93;0.93;;;;;;;12.40;100.00;100765.19;4927753;29;20583;-53
2021/09/03 01:53:13;;;;;;;1.33;1.23;;;;;;;12.45;100.00;100774.78;4935310;29;21027;-53
2021/09/03 01:55:40;;;;;;;0.40;0.20;;;;;;;12.40;100.00;100770.53;4947733;29;20455;-53
2021/09/03 01:58:07;;;;;;;0.40;0.20;;;;;;;12.36;100.00;100780.41;4935743;29;20547;-54
2021/09/03 02:00:34;;;;;;;0.40;0.20;;;;;;;12.19;100.00;100774.66;4935320;29;20538;-53
2021/09/03 02:03:01;;;;;;;0.40;0.20;;;;;;;12.31;100.00;100776.09;4935909;29;20567;-53
2021/09/03 02:05:28;;;;;;;2.40;2.30;;;;;;;12.32;100.00;100783.19;4935227;29;20459;-53
2021/09/03 02:07:55;;;;;;;0.60;0.60;;;;;;;12.16;100.00;100769.41;4935705;29;20539;-53
2021/09/03 02:10:22;;;;;;;6.73;2.43;;;;;;;12.12;100.00;100773.94;4934983;29;21188;-53
2021/09/03 02:12:49;;;;;;;0.30;0.20;;;;;;;11.97;100.00;100771.69;4935284;29;20562;-53
2021/09/03 02:15:16;;;;;;;0.43;0.43;;;;;;;12.03;100.00;100773.31;4935114;29;20452;-53
2021/09/03 02:17:42;;;;;;;0.57;0.57;;;;;;;11.82;100.00;100777.44;4935111;29;20462;-53
2021/09/03 02:20:09;;;;;;;0.37;0.30;;;;;;;11.84;100.00;100765.81;4935241;29;20535;-53
2021/09/03 02:22:36;;;;;;;0.40;0.20;;;;;;;11.92;100.00;100762.06;4934980;29;20563;-54
2021/09/03 02:25:04;;;;;;;0.80;0.80;;;;;;;11.96;100.00;100766.41;4935011;29;21042;-53
2021/09/03 02:27:32;;;;;;;0.30;0.20;;;;;;;12.10;100.00;100765.13;4935162;29;20463;-53
2021/09/03 02:29:58;;;;;;;1.00;1.00;;;;;;;11.92;100.00;100754.06;4935053;29;20539;-53
2021/09/03 02:32:25;;;;;;;0.60;0.60;;;;;;;12.08;100.00;100761.63;4934832;29;20504;-53
2021/09/03 02:34:52;;;;;;;0.40;0.40;;;;;;;12.00;100.00;100768.94;4934898;29;20552;-53
2021/09/03 02:37:19;;;;;;;0.30;0.20;;;;;;;11.91;100.00;100758.53;4935182;29;20539;-53
2021/09/03 02:39:46;;;;;;;0.40;0.20;;;;;;;11.92;100.00;100757.59;4934976;29;20544;-53
2021/09/03 02:42:13;;;;;;;0.30;0.20;;;;;;;11.95;100.00;100754.88;4934934;29;21021;-53
2021/09/03 02:44:40;;;;;;;0.70;0.63;;;;;;;11.84;100.00;100757.84;4934860;29;20535;-53
2021/09/03 02:47:06;;;;;;;0.40;0.40;;;;;;;11.77;100.00;100756.19;4934826;29;20456;-53
2021/09/03 02:49:33;;;;;;;0.40;0.30;;;;;;;11.77;100.00;100750.00;4934839;29;21277;-53
2021/09/03 02:52:00;;;;;;;0.77;0.77;;;;;;;11.80;100.00;100753.50;4934908;29;20586;-53
2021/09/03 02:54:27;;;;;;;0.40;0.20;;;;;;;11.67;100.00;100757.38;4937447;29;20539;-53
2021/09/03 02:56:54;;;;;;;0.40;0.40;;;;;;;11.79;100.00;100765.09;4944850;29;20462;-53
2021/09/03 02:59:21;;;;;;;0.40;0.20;;;;;;;11.75;100.00;100755.34;4935163;29;20975;-53
2021/09/03 03:01:48;;;;;;;0.30;0.20;;;;;;;11.62;100.00;100745.94;4938294;29;21015;-53
2021/09/03 03:04:15;;;;;;;29.37;1.30;;;;;;;11.62;100.00;100753.06;4938259;29;20451;-53
2021/09/03 03:06:42;;;;;;;0.30;0.20;;;;;;;11.62;100.00;100745.06;4938528;29;20907;-53
2021/09/03 03:09:09;;;;;;;0.40;0.40;;;;;;;11.56;100.00;100743.44;4938253;29;20912;-53
2021/09/03 03:11:36;;;;;;;0.40;0.30;;;;;;;11.67;100.00;100744.06;4936895;29;20498;-53
2021/09/03 03:14:04;;;;;;;0.50;0.43;;;;;;;11.70;100.00;100748.41;4938182;29;20546;-53
2021/09/03 03:16:32;;;;;;;0.40;0.20;;;;;;;11.58;100.00;100757.59;4938408;29;20543;-53
2021/09/03 03:18:59;;;;;;;0.40;0.20;;;;;;;11.29;100.00;100745.00;4938334;29;20535;-53
2021/09/03 03:21:26;;;;;;;0.30;0.20;;;;;;;11.40;100.00;100745.63;4938206;29;20527;-53
2021/09/03 03:23:53;;;;;;;0.40;0.20;;;;;;;11.47;100.00;100744.53;4937851;29;20992;-53
2021/09/03 03:26:20;;;;;;;0.30;0.20;;;;;;;11.41;100.00;100741.16;4938275;29;20531;-53
2021/09/03 03:28:47;;;;;;;0.40;0.30;;;;;;;11.31;100.00;100747.63;4937887;29;20547;-53
2021/09/03 03:31:13;;;;;;;0.40;0.20;;;;;;;11.29;100.00;100747.66;4937865;29;20492;-53
2021/09/03 03:33:40;;;;;;;3.30;1.00;;;;;;;11.40;100.00;100745.63;4937892;29;20478;-54
2021/09/03 03:36:07;;;;;;;0.30;0.20;;;;;;;11.54;100.00;100750.59;4937906;29;20491;-53
2021/09/03 03:38:34;;;;;;;0.60;0.60;;;;;;;11.27;100.00;100742.38;4938017;29;20499;-53
2021/09/03 03:41:01;;;;;;;0.30;0.20;;;;;;;11.36;100.00;100743.91;4948511;29;20455;-53
2021/09/03 03:43:28;;;;;;;0.50;0.40;;;;;;;11.30;100.00;100744.09;4939479;29;20916;-53
2021/09/03 03:45:55;;;;;;;0.40;0.37;;;;;;;11.36;100.00;100746.59;4937752;29;20464;-53
2021/09/03 03:48:24;;;;;;;0.30;0.20;;;;;;;11.30;100.00;100744.09;4937652;29;20471;-54
2021/09/03 03:50:51;;;;;;;0.40;0.20;;;;;;;11.31;100.00;100740.50;4937617;29;20528;-53
2021/09/03 03:53:18;;;;;;;0.40;0.30;;;;;;;11.41;100.00;100725.19;4937486;29;20480;-54
2021/09/03 03:55:45;;;;;;;0.30;0.20;;;;;;;11.26;100.00;100730.00;4950164;29;20487;-53
2021/09/03 03:58:12;;;;;;;0.40;0.40;;;;;;;11.36;100.00;100737.72;4924999;29;20891;-53
2021/09/03 04:00:39;;;;;;;0.30;0.20;;;;;;;11.40;100.00;100736.75;4937623;29;20885;-53
2021/09/03 04:03:06;;;;;;;0.30;0.20;;;;;;;11.38;100.00;100730.59;4937400;29;20974;-53
2021/09/03 04:05:33;;;;;;;0.30;0.20;;;;;;;11.39;100.00;100719.91;4937489;29;20829;-53
2021/09/03 04:08:00;;;;;;;0.40;0.20;;;;;;;11.37;100.00;100724.38;4937596;29;20456;-53
2021/09/03 04:10:27;;;;;;;0.30;0.20;;;;;;;11.35;100.00;100720.00;4951615;29;20573;-53
2021/09/03 04:12:54;;;;;;;0.40;0.30;;;;;;;11.19;100.00;100730.16;4936497;29;20472;-52
2021/09/03 04:15:21;;;;;;;0.30;0.20;;;;;;;11.20;100.00;100726.59;4937057;29;20484;-52
2021/09/03 04:17:48;;;;;;;0.30;0.20;;;;;;;11.15;100.00;100732.03;4937148;29;20962;-53
2021/09/03 04:20:15;;;;;;;0.30;0.20;;;;;;;11.03;100.00;100734.09;4937205;29;20491;-53
2021/09/03 04:22:41;;;;;;;0.30;0.20;;;;;;;10.98;100.00;100723.56;4936829;29;21037;-53
2021/09/03 04:25:09;;;;;;;0.60;0.60;;;;;;;10.95;100.00;100726.28;4936898;29;20830;-53
2021/09/03 04:27:39;;;;;;;0.40;0.30;;;;;;;11.02;100.00;100727.03;4937214;29;20459;-53
2021/09/03 04:30:06;;;;;;;0.30;0.20;;;;;;;10.88;100.00;100730.00;4936879;29;20480;-53
2021/09/03 04:32:33;;;;;;;0.53;0.53;;;;;;;10.81;100.00;100739.88;4936645;29;20527;-53
2021/09/03 04:35:00;;;;;;;1.10;1.10;;;;;;;10.85;100.00;100730.97;4938371;29;20457;-53
2021/09/03 04:37:28;;;;;;;0.30;0.20;;;;;;;10.86;100.00;100743.34;4936658;29;20496;-53
2021/09/03 04:39:54;;;;;;;0.30;0.20;;;;;;;10.86;100.00;100735.38;4936605;29;20949;-53
2021/09/03 04:42:21;;;;;;;1.03;1.03;;;;;;;10.68;100.00;100738.41;4936498;29;20500;-53
2021/09/03 04:44:48;;;;;;;0.67;0.67;;;;;;;10.43;100.00;100748.72;4939055;29;20898;-53
2021/09/03 04:47:15;;;;;;;1.53;1.13;;;;;;;10.54;100.00;100751.13;4936665;29;20889;-53
2021/09/03 04:49:42;;;;;;;0.30;0.20;;;;;;;10.58;100.00;100750.19;4936368;29;20487;-53
2021/09/03 04:52:09;;;;;;;0.30;0.20;;;;;;;10.62;100.00;100749.19;4936324;29;20551;-53
2021/09/03 04:54:36;;;;;;;0.30;0.20;;;;;;;10.70;100.00;100744.59;4936299;29;20945;-54
2021/09/03 04:57:03;;;;;;;0.30;0.20;;;;;;;10.70;100.00;100744.59;4940773;29;20532;-53
2021/09/03 04:59:30;;;;;;;1.27;1.27;;;;;;;10.72;100.00;100739.25;4934162;29;20452;-53
2021/09/03 05:01:56;;;;;;;0.40;0.30;;;;;;;10.73;100.00;100747.19;4936214;29;20487;-53
2021/09/03 05:04:24;;;;;;;0.30;0.20;;;;;;;10.89;100.00;100743.28;4935949;29;20452;-54
2021/09/03 05:06:51;;;;;;;0.93;0.93;;;;;;;10.96;100.00;100744.00;4936067;29;20934;-53
2021/09/03 05:09:18;;;;;;;0.30;0.20;;;;;;;11.09;100.00;100750.78;4935973;29;20460;-54
2021/09/03 05:11:45;;;;;;;0.30;0.20;;;;;;;11.06;100.00;100745.53;4936195;29;20543;-54
2021/09/03 05:14:11;;;;;;;0.50;0.50;;;;;;;11.03;100.00;100744.75;4936180;29;20491;-54
2021/09/03 05:16:38;;;;;;;0.30;0.30;;;;;;;11.11;100.00;100741.00;4935992;29;20460;-53
2021/09/03 05:19:07;;;;;;;0.30;0.20;;;;;;;11.66;100.00;100758.28;4935858;29;20484;-54
2021/09/03 05:21:34;;;;;;;0.30;0.20;;;;;;;12.25;100.00;100758.50;4935938;29;20869;-53
2021/09/03 05:24:01;;;;;;;0.30;0.20;;;;;;;12.85;100.00;100748.75;4935734;29;21032;-54
2021/09/03 05:26:28;;;;;;;0.30;0.20;;;;;;;13.12;100.00;100757.69;4938459;29;20867;-54
2021/09/03 05:28:54;;;;;;;0.30;0.20;;;;;;;13.18;100.00;100761.09;4935204;29;20456;-54
2021/09/03 05:31:21;;;;;;;0.97;0.97;;;;;;;13.26;100.00;100758.16;4935716;29;20524;-54
2021/09/03 05:33:48;;;;;;;0.30;0.20;;;;;;;13.40;100.00;100763.94;4935605;29;20551;-54
2021/09/03 05:36:15;;;;;;;4.63;1.37;;;;;;;13.56;100.00;100765.16;4935701;29;20456;-54
2021/09/03 05:38:42;;;;;;;0.90;0.77;;;;;;;13.80;99.54;100767.94;4935483;29;20486;-54
2021/09/03 05:41:09;;;;;;;0.30;0.20;;;;;;;14.07;98.98;100758.09;4935610;29;20507;-54
2021/09/03 05:43:36;;;;;;;0.40;0.20;;;;;;;14.11;99.61;100765.94;4935477;29;20468;-54
2021/09/03 05:46:03;;;;;;;0.40;0.30;;;;;;;14.27;99.17;100757.41;4935452;29;20487;-54
2021/09/03 05:48:30;;;;;;;0.30;0.20;;;;;;;14.30;98.87;100763.50;4935449;29;20499;-54
2021/09/03 05:50:57;;;;;;;2.20;2.00;;;;;;;14.29;99.29;100758.22;4935816;29;20887;-54
2021/09/03 05:53:24;;;;;;;0.40;0.20;;;;;;;14.02;100.00;100744.91;4935368;29;20504;-53
2021/09/03 05:55:51;;;;;;;0.40;0.20;;;;;;;13.92;100.00;100752.38;4948323;29;20482;-53
2021/09/03 05:58:18;;;;;;;0.57;0.57;;;;;;;13.77;100.00;100750.22;4935342;29;20494;-53
2021/09/03 06:00:45;;;;;;;0.40;0.30;;;;;;;13.78;100.00;100751.09;4937227;29;20512;-54
2021/09/03 06:03:12;;;;;;;0.40;0.20;;;;;;;13.50;100.00;100753.81;4935247;29;20468;-53
2021/09/03 06:05:39;;;;;;;0.50;0.50;;;;;;;13.38;100.00;100748.88;4935192;29;20550;-54
2021/09/03 06:08:06;;;;;;;0.40;0.20;;;;;;;13.36;100.00;100761.41;4935230;29;20499;-54
2021/09/03 06:10:33;;;;;;;0.40;0.20;;;;;;;13.42;100.00;100756.72;4949787;29;20977;-53
2021/09/03 06:13:00;;;;;;;1.03;0.83;;;;;;;13.56;100.00;100753.59;4934941;29;20551;-53
2021/09/03 06:15:27;;;;;;;0.40;0.30;;;;;;;13.57;100.00;100755.38;4935124;29;20456;-54
2021/09/03 06:17:54;;;;;;;0.37;0.20;;;;;;;13.47;100.00;100745.91;4935507;29;20456;-54
2021/09/03 06:20:21;;;;;;;0.30;0.20;;;;;;;13.66;100.00;100741.69;4935244;29;20988;-54
2021/09/03 06:22:48;;;;;;;1.83;0.80;;;;;;;13.59;100.00;100753.53;4935124;29;20539;-54
2021/09/03 06:25:15;;;;;;;0.37;0.20;;;;;;;13.74;100.00;100755.69;4935109;29;20506;-54
2021/09/03 06:27:42;;;;;;;0.40;0.20;;;;;;;13.77;100.00;100755.56;4935289;29;20877;-54
2021/09/03 06:30:09;;;;;;;0.53;0.47;;;;;;;13.91;100.00;100747.06;4935022;29;20456;-54
2021/09/03 06:32:36;;;;;;;4.33;1.00;;;;;;;13.90;100.00;100754.22;4935192;29;20926;-54
2021/09/03 06:35:04;;;;;;;0.40;0.20;;;;;;;14.02;100.00;100750.25;4936383;29;20973;-53
2021/09/03 06:37:33;;;;;;;0.50;0.50;;;;;;;14.24;100.00;100743.19;4938913;29;20456;-54
2021/09/03 06:40:00;;;;;;;0.40;0.30;;;;;;;14.34;100.00;100753.56;4938845;29;20970;-54
2021/09/03 06:42:30;;;;;;;0.30;0.20;;;;;;;14.84;100.00;100746.34;4938699;29;20527;-54
2021/09/03 06:44:59;;;;;;;1.07;0.90;;;;;;;14.64;100.00;100738.19;4938629;29;21049;-54
2021/09/03 06:47:28;;;;;;;4.17;1.27;;;;;;;14.75;100.00;100750.25;4938894;29;20459;-54
2021/09/03 06:49:55;;;;;;;0.40;0.30;;;;;;;14.72;100.00;100747.69;4938687;29;20511;-54
2021/09/03 06:52:28;;;;;;;0.40;0.20;;;;;;;14.93;100.00;100751.31;4938115;29;20619;-54
2021/09/03 06:55:00;;;;;;;0.73;0.73;;;;;;;14.89;100.00;100744.34;4944539;29;20471;-54
2021/09/03 06:57:27;;;;;;;1.23;1.13;;;;;;;15.13;100.00;100739.84;4943991;29;20459;-55
2021/09/03 06:59:55;;;;;;;0.30;0.20;;;;;;;15.06;100.00;100746.34;4938604;29;20479;-54
2021/09/03 07:02:22;;;;;;;0.40;0.20;;;;;;;15.08;100.00;100737.34;4938333;29;20512;-54
2021/09/03 07:04:49;;;;;;;0.40;0.20;;;;;;;15.32;100.00;100739.94;4938416;29;20519;-55
2021/09/03 07:07:16;;;;;;;2.00;1.00;;;;;;;15.46;100.00;100739.38;4938190;29;20815;-54
2021/09/03 07:09:52;;;;;;;0.40;0.20;;;;;;;15.41;100.00;100736.91;4938143;29;20526;-55
2021/09/03 07:12:19;;;;;;;1.03;0.60;;;;;;;15.76;100.00;100735.47;4938030;29;20533;-55
2021/09/03 07:14:46;;;;;;;0.40;0.20;;;;;;;15.59;100.00;100743.28;4938144;29;20491;-54
2021/09/03 07:17:13;;;;;;;0.40;0.30;;;;;;;15.89;100.00;100739.34;4938036;29;20961;-55
2021/09/03 07:19:40;;;;;;;0.40;0.30;;;;;;;16.07;100.00;100736.81;4938170;29;20452;-55
2021/09/03 07:22:07;;;;;;;1.47;1.37;;;;;;;16.49;100.00;100737.56;4938049;29;20496;-53
2021/09/03 07:24:34;;;;;;;0.40;0.20;;;;;;;16.46;100.00;100728.78;4937867;29;20498;-53
2021/09/03 07:27:02;;;;;;;1.70;0.73;;;;;;;16.70;100.00;100737.53;4937851;29;20983;-53
2021/09/03 07:29:29;;;;;;;0.40;0.30;;;;;;;16.76;100.00;100730.09;4937896;29;20456;-53
2021/09/03 07:31:56;;;;;;;3.40;0.57;;;;;;;16.55;100.00;100734.59;4937533;29;21029;-53
2021/09/03 07:34:23;;;;;;;0.67;0.67;;;;;;;16.73;100.00;100734.72;4937787;29;20460;-52
2021/09/03 07:36:50;;;;;;;0.43;0.40;;;;;;;16.75;100.00;100733.72;4937910;29;20454;-52
2021/09/03 07:39:21;;;;;;;1.67;1.67;;;;;;;16.91;100.00;100731.16;4937790;29;20452;-53
2021/09/03 07:41:48;;;;;;;0.40;0.30;;;;;;;17.30;100.00;100730.19;4937705;29;20472;-53
2021/09/03 07:44:15;;;;;;;0.40;0.20;;;;;;;17.07;100.00;100729.47;4937566;29;20507;-52
2021/09/03 07:46:43;;;;;;;0.50;0.50;;;;;;;17.38;100.00;100725.28;4937325;29;20467;-53
2021/09/03 07:49:11;;;;;;;1.40;1.30;;;;;;;17.27;100.00;100722.25;4937420;29;20457;-53
2021/09/03 07:51:38;;;;;;;0.50;0.40;;;;;;;17.46;100.00;100731.16;4937266;29;20941;-53
2021/09/03 07:54:05;;;;;;;0.40;0.20;;;;;;;17.55;99.74;100728.03;4937419;29;20507;-53
2021/09/03 07:56:32;;;;;;;1.37;0.70;;;;;;;17.62;100.00;100725.88;4950616;29;20491;-54
2021/09/03 07:58:59;;;;;;;0.40;0.20;;;;;;;17.86;99.99;100729.19;4937361;29;20492;-53
2021/09/03 08:01:26;;;;;;;0.40;0.30;;;;;;;17.82;99.37;100732.94;4937529;29;20949;-52
2021/09/03 08:03:54;;;;;;;5.73;2.90;;;;;;;18.20;98.83;100734.50;4937041;29;20480;-52
2021/09/03 08:06:21;;;;;;;3.20;1.00;;;;;;;18.66;97.05;100732.09;4924553;29;21016;-53
2021/09/03 08:08:47;;;;;;;0.43;0.37;;;;;;;18.31;97.67;100737.50;4937416;29;20554;-54
2021/09/03 08:11:14;;;;;;;0.53;0.50;;;;;;;18.39;97.57;100720.97;4936937;29;20488;-53
2021/09/03 08:13:41;;;;;;;0.50;0.40;;;;;;;18.50;97.40;100726.66;4936800;29;20981;-53
2021/09/03 08:16:08;;;;;;;0.40;0.30;;;;;;;18.63;96.60;100727.72;4936869;29;20483;-54
2021/09/03 08:18:35;;;;;;;0.57;0.40;;;;;;;19.15;95.90;100722.09;4936808;29;20546;-53
2021/09/03 08:21:02;;;;;;;0.40;0.20;;;;;;;18.97;95.45;100725.84;4937326;29;20491;-52
2021/09/03 08:23:29;;;;;;;0.40;0.30;;;;;;;18.97;96.09;100715.06;4936722;29;20535;-53
2021/09/03 08:25:56;;;;;;;0.70;0.70;;;;;;;19.34;95.29;100715.69;4936786;29;20499;-52
2021/09/03 08:28:23;;;;;;;0.70;0.70;;;;;;;19.38;94.69;100717.22;4936726;29;20456;-53
2021/09/03 08:30:49;;;;;;;2.10;1.13;;;;;;;19.62;94.26;100715.81;4936750;29;20484;-53
2021/09/03 08:33:17;;;;;;;0.40;0.30;;;;;;;19.71;93.56;100717.09;4936826;29;20917;-53
2021/09/03 08:35:43;;;;;;;3.10;3.00;;;;;;;19.66;92.70;100721.91;4936697;29;20457;-53
2021/09/03 08:38:10;;;;;;;1.03;1.03;;;;;;;20.07;91.26;100716.72;4936555;29;20460;-53
2021/09/03 08:40:37;;;;;;;0.40;0.20;;;;;;;20.09;92.25;100714.78;4936768;29;20479;-53
2021/09/03 08:43:05;;;;;;;4.30;0.80;;;;;;;20.50;90.33;100711.38;4936498;29;21056;-53
2021/09/03 08:45:32;;;;;;;1.30;1.30;;;;;;;20.55;90.01;100707.41;4936391;29;20460;-53
2021/09/03 08:47:59;;;;;;;0.87;0.87;;;;;;;20.54;88.78;100700.28;4936487;29;20526;-53
2021/09/03 08:50:27;;;;;;;0.40;0.30;;;;;;;20.76;88.42;100702.47;4936624;29;20456;-53
2021/09/03 08:52:55;;;;;;;0.93;0.93;;;;;;;20.80;86.99;100703.16;4936429;29;20534;-53
2021/09/03 08:55:22;;;;;;;0.77;0.77;;;;;;;21.07;86.27;100705.91;4946214;29;20486;-53
2021/09/03 08:57:49;;;;;;;0.47;0.30;;;;;;;21.11;85.41;100704.75;4938725;29;20499;-52
2021/09/03 09:00:23;;;;;;;0.50;0.40;;;;;;;21.17;82.27;100715.16;4936376;29;20996;-53
2021/09/03 09:03:05;;;;;;;0.80;0.80;;;;;;;21.24;82.52;100703.84;4936361;29;20505;-53
2021/09/03 09:05:49;;;;;;;0.40;0.30;;;;;;;21.31;81.86;100701.59;4936330;29;20453;-53
2021/09/03 09:08:18;;;;;;;0.93;0.93;;;;;;;21.42;81.05;100703.59;4936227;29;20876;-53
2021/09/03 09:10:53;;;;;;;0.50;0.40;;;;;;;21.46;79.93;100706.00;4936240;29;20456;-53
2021/09/03 09:13:22;;;;;;;0.87;0.77;;;;;;;21.74;80.28;100690.59;4936185;29;20495;-53
2021/09/03 09:16:09;;;;;;;0.60;0.50;;;;;;;21.98;79.12;100694.31;4936166;29;20430;-54
2021/09/03 09:18:40;;;;;;;0.70;0.57;;;;;;;22.17;79.42;100705.63;4936162;29;20513;-54
2021/09/03 09:21:30;;;;;;;0.67;0.60;;;;;;;21.96;78.40;100706.22;4935985;29;20456;-53
2021/09/03 09:24:02;;;;;;;0.50;0.50;;;;;;;22.35;79.10;100697.19;4935752;29;20508;-53
2021/09/03 09:26:49;;;;;;;0.50;0.50;;;;;;;22.17;76.53;100697.50;4936070;29;20454;-53
2021/09/03 09:29:19;;;;;;;1.83;1.60;;;;;;;22.16;74.97;100687.63;4935857;29;20479;-53
2021/09/03 09:31:52;;;;;;;0.40;0.30;;;;;;;22.47;74.37;100691.72;4934626;29;20452;-52
2021/09/03 09:34:21;;;;;;;0.40;0.23;;;;;;;22.15;74.54;100685.91;4935750;29;20459;-52
2021/09/03 09:36:54;;;;;;;0.40;0.20;;;;;;;22.57;73.36;100689.22;4935677;29;20456;-52
2021/09/03 09:39:23;;;;;;;1.57;0.87;;;;;;;22.80;72.16;100679.44;4935888;29;20538;-53
2021/09/03 09:41:58;;;;;;;0.73;0.73;;;;;;;22.56;71.28;100682.09;4935539;29;20936;-53
2021/09/03 09:44:33;;;;;;;0.43;0.37;;;;;;;22.64;71.50;100682.41;4935527;29;20459;-53
2021/09/03 09:47:09;;;;;;;0.50;0.30;;;;;;;22.65;70.97;100681.44;4943000;29;20427;-52
2021/09/03 09:49:36;;;;;;;0.40;0.30;;;;;;;22.83;70.64;100675.66;4931773;29;20433;-52
2021/09/03 09:52:05;;;;;;;0.40;0.30;;;;;;;22.73;70.03;100661.88;4935229;29;20476;-53
2021/09/03 09:54:32;;;;;;;0.70;0.70;;;;;;;22.93;68.05;100664.03;4938340;29;20459;-53
2021/09/03 09:57:02;;;;;;;2.30;0.73;;;;;;;23.02;67.37;100657.91;4945205;29;20453;-52
2021/09/03 09:59:31;;;;;;;0.40;0.30;;;;;;;23.13;68.44;100667.09;4935302;29;20435;-52
2021/09/03 10:02:01;;;;;;;1.53;1.47;;;;;;;23.01;67.90;100667.03;4935435;29;20462;-53
2021/09/03 10:04:31;;;;;;;0.97;0.70;;;;;;;22.96;67.41;100655.66;4935234;29;20433;-53
2021/09/03 10:07:00;;;;;;;0.40;0.30;;;;;;;23.02;67.61;100652.50;4935263;29;20466;-52
2021/09/03 10:09:32;;;;;;;0.40;0.20;;;;;;;23.41;66.41;100652.31;4934272;29;20457;-53
2021/09/03 10:12:01;;;;;;;0.87;0.87;;;;;;;23.59;66.27;100651.81;4935199;29;20472;-53
2021/09/03 10:14:33;;;;;;;0.40;0.27;;;;;;;23.26;65.82;100649.78;4935124;29;21013;-53
2021/09/03 10:17:01;;;;;;;0.60;0.60;;;;;;;23.66;67.79;100643.19;4935335;29;20466;-53
2021/09/03 10:19:31;;;;;;;0.40;0.20;;;;;;;23.60;64.54;100644.53;4935361;29;20894;-53
2021/09/03 10:22:04;;;;;;;0.57;0.57;;;;;;;23.22;63.78;100642.00;4935018;29;20990;-53
2021/09/03 10:24:31;;;;;;;0.40;0.30;;;;;;;23.58;65.38;100647.38;4935327;29;20451;-53
2021/09/03 10:26:59;;;;;;;0.50;0.30;;;;;;;23.85;64.69;100641.66;4935038;29;20458;-52
2021/09/03 10:29:37;;;;;;;5.70;2.40;;;;;;;23.87;64.87;100636.09;4935146;29;20931;-52
2021/09/03 10:32:04;;;;;;;0.50;0.40;;;;;;;24.21;62.93;100637.00;4935231;29;20446;-53
2021/09/03 10:34:43;;;;;;;0.80;0.60;;;;;;;24.22;61.52;100638.72;4935135;29;20496;-53
2021/09/03 10:37:19;;;;;;;0.50;0.40;;;;;;;24.24;61.21;100640.31;4931524;29;20574;-53
2021/09/03 10:39:52;;;;;;;2.13;2.00;;;;;;;24.43;60.42;100633.47;4929630;29;20442;-53
2021/09/03 10:42:38;;;;;;;0.50;0.30;;;;;;;24.03;61.48;100630.31;4935136;29;20475;-53
2021/09/03 10:45:14;;;;;;;2.00;0.50;;;;;;;24.09;61.97;100630.69;4934990;29;20488;-53
2021/09/03 10:47:40;;;;;;;0.50;0.30;;;;;;;24.52;63.14;100628.13;4934994;29;20478;-53
2021/09/03 10:50:36;;;;;;;0.40;0.30;;;;;;;24.18;59.25;100629.97;4934768;29;20507;-54
2021/09/03 10:53:06;;;;;;;0.50;0.40;;;;;;;24.26;59.14;100621.22;4934723;29;20514;-53
2021/09/03 10:55:52;;;;;;;0.40;0.20;;;;;;;24.37;60.08;100618.50;4946156;29;20908;-52
2021/09/03 10:58:58;;;;;;;0.40;0.30;;;;;;;24.68;59.01;100616.88;4923400;29;20934;-53
2021/09/03 11:01:26;;;;;;;0.73;0.73;;;;;;;24.52;57.32;100617.25;4934678;29;20455;-53
2021/09/03 11:04:05;;;;;;;1.63;1.63;;;;;;;24.70;58.27;100617.63;4934803;29;20471;-53
2021/09/03 11:07:02;;;;;;;0.40;0.30;;;;;;;24.84;57.71;100607.47;4934952;29;20448;-54
2021/09/03 11:09:30;;;;;;;0.50;0.40;;;;;;;24.71;57.12;100615.75;4935083;29;20842;-53
2021/09/03 11:12:02;;;;;;;3.37;0.63;;;;;;;24.69;57.58;100618.63;4934671;29;20431;-53
2021/09/03 11:14:30;;;;;;;0.57;0.50;;;;;;;24.51;57.39;100609.22;4922762;29;20528;-53
2021/09/03 11:17:19;;;;;;;0.50;0.50;;;;;;;24.43;57.53;100607.16;4934749;29;20851;-53
2021/09/03 11:19:48;;;;;;;0.40;0.27;;;;;;;24.46;57.53;100601.44;4934648;29;20419;-52
2021/09/03 11:22:21;;;;;;;0.50;0.40;;;;;;;24.71;58.00;100594.00;4937833;29;20454;-52
2021/09/03 11:24:51;;;;;;;0.87;0.63;;;;;;;24.65;57.99;100599.94;4938390;29;20458;-53